createdAt,value
2023-11-11T00:01:12.921Z,31.50
2023-11-11T00:03:39.987Z,34.75
2023-11-11T00:06:07.016Z,35.50
2023-11-11T00:08:33.900Z,33.00
2023-11-11T00:11:00.869Z,30.00
2023-11-11T00:13:27.766Z,35.25
2023-11-11T00:15:54.891Z,34.00
2023-11-11T00:18:22.094Z,34.00
2023-11-11T00:20:49.056Z,34.00
2023-11-11T00:23:16.338Z,35.50
2023-11-11T00:25:43.996Z,33.00
2023-11-11T00:28:10.920Z,33.00
2023-11-11T00:30:41.368Z,33.00
2023-11-11T00:33:09.274Z,33.00
2023-11-11T00:35:36.287Z,33.00
2023-11-11T00:38:03.295Z,30.00
2023-11-11T00:40:30.191Z,32.00
2023-11-11T00:42:57.069Z,31.75
2023-11-11T00:45:23.968Z,32.00
2023-11-11T00:47:51.038Z,34.00
2023-11-11T00:50:17.946Z,32.00
2023-11-11T00:52:44.985Z,33.75
2023-11-11T00:55:11.957Z,32.00
2023-11-11T00:57:38.961Z,32.00
2023-11-11T01:00:07.602Z,31.50
2023-11-11T01:02:34.758Z,32.50
2023-11-11T01:05:01.628Z,33.00
2023-11-11T01:07:28.658Z,32.00
2023-11-11T01:09:56.187Z,32.00
2023-11-11T01:12:23.225Z,31.00
2023-11-11T01:14:50.515Z,34.00
2023-11-11T01:17:17.555Z,35.75
2023-11-11T01:19:44.458Z,33.00
2023-11-11T01:22:11.514Z,35.50
2023-11-11T01:24:38.974Z,37.00
2023-11-11T01:27:06.063Z,36.00
2023-11-11T01:29:33.022Z,34.00
2023-11-11T01:32:00.197Z,31.25
2023-11-11T01:34:27.158Z,35.50
2023-11-11T01:36:54.132Z,36.00
2023-11-11T01:39:21.024Z,32.75
2023-11-11T01:41:47.917Z,32.00
2023-11-11T01:44:14.785Z,32.00
2023-11-11T01:46:44.327Z,33.00
2023-11-11T01:49:12.624Z,35.50
2023-11-11T01:51:39.550Z,38.00
2023-11-11T01:54:07.134Z,39.00
2023-11-11T01:56:34.743Z,34.25
2023-11-11T01:59:02.452Z,34.50
2023-11-11T02:01:29.428Z,32.00
2023-11-11T02:03:56.712Z,34.50
2023-11-11T02:06:24.045Z,34.00
2023-11-11T02:08:51.449Z,30.75
2023-11-11T02:11:18.542Z,35.00
2023-11-11T02:13:45.640Z,31.75
2023-11-11T02:16:13.782Z,34.50
2023-11-11T02:18:41.713Z,34.00
2023-11-11T02:21:08.751Z,33.50
2023-11-11T02:23:37.363Z,36.00
2023-11-11T02:26:05.653Z,34.00
2023-11-11T02:28:32.628Z,33.00
2023-11-11T02:30:59.735Z,33.50
2023-11-11T02:33:27.198Z,34.25
2023-11-11T02:35:54.123Z,34.00
2023-11-11T02:38:21.269Z,30.50
2023-11-11T02:40:48.143Z,30.00
2023-11-11T02:43:15.151Z,32.00
2023-11-11T02:45:42.438Z,34.00
2023-11-11T02:48:09.547Z,34.00
2023-11-11T02:50:36.470Z,34.00
2023-11-11T02:53:03.511Z,32.00
2023-11-11T02:55:30.413Z,32.00
2023-11-11T02:57:57.307Z,31.00
2023-11-11T03:00:24.281Z,31.50
2023-11-11T03:02:51.238Z,29.75
2023-11-11T03:05:18.353Z,28.25
2023-11-11T03:07:45.928Z,31.00
2023-11-11T03:10:13.874Z,30.00
2023-11-11T03:12:40.980Z,30.00
2023-11-11T03:15:08.809Z,30.00
2023-11-11T03:17:36.073Z,32.00
2023-11-11T03:20:03.193Z,32.50
2023-11-11T03:22:30.316Z,28.50
2023-11-11T03:24:57.235Z,27.00
2023-11-11T03:27:24.219Z,28.00
2023-11-11T03:29:51.299Z,27.00
2023-11-11T03:32:18.228Z,29.50
2023-11-11T03:34:45.261Z,31.00
2023-11-11T03:37:12.176Z,32.50
2023-11-11T03:39:39.066Z,32.00
2023-11-11T03:42:06.146Z,27.00
2023-11-11T03:44:33.093Z,27.50
2023-11-11T03:46:59.927Z,31.00
2023-11-11T03:49:26.878Z,31.00
2023-11-11T03:51:53.863Z,32.00
2023-11-11T03:54:20.852Z,32.00
2023-11-11T03:56:47.795Z,32.25
2023-11-11T03:59:14.695Z,32.00
2023-11-11T04:01:41.583Z,29.00
2023-11-11T04:04:08.524Z,28.00
2023-11-11T04:06:36.318Z,28.50
2023-11-11T04:09:03.631Z,31.00
2023-11-11T04:11:30.535Z,32.50
2023-11-11T04:13:57.743Z,30.00
2023-11-11T04:16:25.292Z,27.25
2023-11-11T04:18:52.209Z,27.00
2023-11-11T04:21:19.232Z,31.50
2023-11-11T04:23:46.201Z,29.50
2023-11-11T04:26:13.080Z,31.75
2023-11-11T04:28:40.265Z,30.00
2023-11-11T04:31:07.118Z,33.75
2023-11-11T04:33:34.064Z,31.25
2023-11-11T04:36:01.025Z,30.75
2023-11-11T04:38:29.013Z,34.00
2023-11-11T04:40:57.221Z,29.25
2023-11-11T04:43:24.187Z,27.00
2023-11-11T04:45:51.401Z,28.50
2023-11-11T04:48:18.325Z,31.00
2023-11-11T04:50:45.301Z,33.00
2023-11-11T04:53:12.240Z,31.50
2023-11-11T04:55:39.148Z,29.00
2023-11-11T04:58:06.038Z,29.00
2023-11-11T05:00:32.969Z,33.00
2023-11-11T05:02:59.965Z,31.00
2023-11-11T05:05:26.891Z,32.00
2023-11-11T05:07:53.786Z,34.75
2023-11-11T05:10:20.640Z,33.00
2023-11-11T05:12:47.633Z,33.00
2023-11-11T05:15:14.619Z,32.00
2023-11-11T05:17:43.736Z,34.75
2023-11-11T05:20:11.719Z,33.00
2023-11-11T05:22:39.141Z,32.00
2023-11-11T05:25:06.680Z,32.75
2023-11-11T05:27:34.102Z,35.50
2023-11-11T05:30:01.568Z,37.50
2023-11-11T05:32:28.705Z,37.00
2023-11-11T05:34:55.830Z,34.50
2023-11-11T05:37:22.729Z,37.75
2023-11-11T05:39:49.678Z,36.75
2023-11-11T05:42:16.704Z,37.25
2023-11-11T05:44:43.718Z,35.00
2023-11-11T05:47:10.691Z,36.25
2023-11-11T05:49:38.369Z,37.00
2023-11-11T05:52:05.702Z,36.25
2023-11-11T05:54:32.896Z,33.25
2023-11-11T05:56:59.830Z,31.00
2023-11-11T05:59:26.844Z,33.00
2023-11-11T06:01:53.794Z,32.25
2023-11-11T06:04:21.006Z,32.00
2023-11-11T06:06:48.025Z,32.00
2023-11-11T06:09:16.851Z,33.25
2023-11-11T06:11:47.848Z,31.00
2023-11-11T06:14:16.025Z,30.75
2023-11-11T06:16:43.776Z,34.00
2023-11-11T06:19:11.190Z,34.00
2023-11-11T06:21:38.367Z,34.00
2023-11-11T06:24:05.700Z,33.50
2023-11-11T06:26:32.935Z,35.50
2023-11-11T06:29:00.061Z,37.00
2023-11-11T06:31:28.262Z,35.00
2023-11-11T06:33:55.446Z,34.00
2023-11-11T06:36:22.461Z,33.00
2023-11-11T06:38:49.670Z,34.00
2023-11-11T06:41:16.627Z,34.00
2023-11-11T06:43:43.497Z,37.00
2023-11-11T06:46:10.515Z,36.00
2023-11-11T06:48:37.501Z,34.00
2023-11-11T06:51:04.721Z,34.00
2023-11-11T06:53:31.719Z,34.50
2023-11-11T06:55:58.701Z,34.50
2023-11-11T06:58:25.598Z,37.00
2023-11-11T07:00:52.915Z,36.00
2023-11-11T07:03:19.996Z,37.00
2023-11-11T07:05:46.917Z,35.00
2023-11-11T07:08:13.761Z,34.00
2023-11-11T07:10:42.207Z,34.00
2023-11-11T07:13:10.542Z,35.00
2023-11-11T07:15:37.479Z,32.00
2023-11-11T07:18:05.149Z,29.00
2023-11-11T07:20:32.300Z,29.50
2023-11-11T07:22:59.162Z,31.50
2023-11-11T07:25:26.501Z,33.50
2023-11-11T07:27:53.554Z,32.00
2023-11-11T07:30:20.498Z,35.75
2023-11-11T07:32:57.034Z,34.00
2023-11-11T07:35:28.796Z,32.50
2023-11-11T07:37:55.840Z,31.50
2023-11-11T07:40:22.869Z,33.50
2023-11-11T07:42:49.846Z,32.00
2023-11-11T07:45:16.919Z,30.00
2023-11-11T07:47:43.887Z,32.75
2023-11-11T07:50:10.960Z,35.25
2023-11-11T07:52:38.003Z,34.00
2023-11-11T07:55:05.412Z,34.00
2023-11-11T08:00:02.592Z,36.00
2023-11-11T08:02:34.547Z,38.00
2023-11-11T08:05:01.572Z,34.00
2023-11-11T08:07:28.548Z,35.00
2023-11-11T08:09:55.513Z,36.00
2023-11-11T08:12:22.465Z,38.00
2023-11-11T08:14:49.586Z,38.00
2023-11-11T08:17:16.608Z,35.00
2023-11-11T08:19:43.722Z,34.00
2023-11-11T08:22:10.768Z,35.00
2023-11-11T08:24:37.789Z,33.00
2023-11-11T08:27:05.021Z,33.00
2023-11-11T08:29:32.113Z,33.00
2023-11-11T08:31:59.056Z,33.00
2023-11-11T08:34:26.093Z,33.00
2023-11-11T08:36:53.729Z,32.50
2023-11-11T08:39:20.890Z,33.50
2023-11-11T08:41:47.869Z,34.00
2023-11-11T08:44:14.960Z,35.50
2023-11-11T08:46:41.965Z,37.00
2023-11-11T08:49:09.264Z,36.00
2023-11-11T08:51:36.234Z,35.00
2023-11-11T08:54:03.289Z,35.50
2023-11-11T08:56:30.234Z,36.00
2023-11-11T08:58:57.282Z,40.00
2023-11-11T09:01:24.314Z,37.25
2023-11-11T09:03:51.568Z,36.00
2023-11-11T09:06:18.616Z,35.00
2023-11-11T09:08:45.696Z,36.75
2023-11-11T09:11:12.907Z,38.00
2023-11-11T09:13:40.018Z,35.00
2023-11-11T09:16:07.234Z,34.00
2023-11-11T09:18:34.304Z,37.00
2023-11-11T09:21:01.351Z,37.50
2023-11-11T09:23:28.805Z,37.25
2023-11-11T09:25:57.290Z,37.00
2023-11-11T09:28:24.486Z,39.25
2023-11-11T09:30:51.548Z,36.00
2023-11-11T09:33:18.957Z,35.00
2023-11-11T09:35:47.488Z,35.50
2023-11-11T09:38:14.586Z,34.50
2023-11-11T09:40:41.660Z,33.00
2023-11-11T09:43:08.885Z,35.50
2023-11-11T09:45:35.949Z,36.00
2023-11-11T09:48:03.058Z,38.00
2023-11-11T09:50:30.693Z,35.00
2023-11-11T09:53:00.743Z,36.00
2023-11-11T09:55:29.164Z,36.75
2023-11-11T09:57:56.562Z,38.00
2023-11-11T10:00:23.665Z,36.00
2023-11-11T10:02:50.772Z,36.00
2023-11-11T10:05:18.156Z,37.50
2023-11-11T10:07:45.194Z,35.75
2023-11-11T10:10:12.491Z,33.25
2023-11-11T10:12:39.679Z,34.00
2023-11-11T10:15:08.236Z,37.50
2023-11-11T10:17:39.566Z,37.00
2023-11-11T10:20:12.886Z,36.00
2023-11-11T10:22:49.630Z,37.00
2023-11-11T10:25:19.455Z,36.00
2023-11-11T10:27:54.558Z,36.75
2023-11-11T10:30:26.269Z,36.00
2023-11-11T10:32:55.062Z,38.00
2023-11-11T10:35:24.020Z,39.00
2023-11-11T10:37:51.198Z,41.50
2023-11-11T10:40:19.530Z,40.00
2023-11-11T10:42:48.728Z,38.00
2023-11-11T10:45:16.900Z,39.00
2023-11-11T10:47:44.869Z,38.00
2023-11-11T10:50:12.933Z,40.00
2023-11-11T10:52:43.845Z,39.00
2023-11-11T10:55:12.835Z,40.00
2023-11-11T10:57:40.865Z,40.00
2023-11-11T11:00:09.366Z,39.00
2023-11-11T11:02:36.740Z,38.00
2023-11-11T11:05:10.385Z,38.50
2023-11-11T11:07:47.677Z,37.00
2023-11-11T11:10:29.408Z,40.25
2023-11-11T11:13:02.766Z,38.00
2023-11-11T11:15:29.907Z,37.00
2023-11-11T11:17:56.874Z,40.00
2023-11-11T11:20:24.360Z,41.25
2023-11-11T11:22:58.230Z,41.00
2023-11-11T11:25:35.514Z,38.50
2023-11-11T11:28:12.030Z,40.75
2023-11-11T11:30:43.965Z,40.75
2023-11-11T11:33:23.555Z,39.00
2023-11-11T11:35:53.199Z,37.25
2023-11-11T11:38:27.455Z,44.75
2023-11-11T11:41:10.526Z,44.25
2023-11-11T11:43:38.825Z,39.50
2023-11-11T11:46:06.452Z,39.75
2023-11-11T11:48:37.654Z,40.50
2023-11-11T11:51:07.832Z,41.75
2023-11-11T11:53:35.860Z,43.00
2023-11-11T11:56:02.995Z,42.00
2023-11-11T11:58:44.090Z,42.00
2023-11-11T12:01:11.384Z,43.00
2023-11-11T12:03:38.746Z,42.00
2023-11-11T12:06:05.877Z,42.00
2023-11-11T12:08:33.019Z,39.75
2023-11-11T12:11:00.141Z,40.25
2023-11-11T12:13:27.075Z,39.00
2023-11-11T12:15:54.126Z,40.00
2023-11-11T12:18:21.092Z,40.00
2023-11-11T12:20:48.187Z,41.00
2023-11-11T12:23:15.222Z,41.00
2023-11-11T12:25:42.988Z,39.00
2023-11-11T12:28:10.452Z,41.00
2023-11-11T12:30:37.619Z,41.75
2023-11-11T12:33:05.873Z,42.00
2023-11-11T12:35:34.640Z,39.50
2023-11-11T12:38:24.594Z,38.00
2023-11-11T12:40:53.136Z,39.75
2023-11-11T12:43:21.553Z,40.00
2023-11-11T12:45:52.541Z,40.00
2023-11-11T12:48:19.801Z,38.00
2023-11-11T12:50:46.756Z,39.00
2023-11-11T12:53:13.727Z,38.00
2023-11-11T12:55:41.777Z,36.00
2023-11-11T12:58:26.078Z,37.00
2023-11-11T13:00:55.686Z,38.00
2023-11-11T13:03:27.366Z,40.00
2023-11-11T13:05:56.097Z,38.25
2023-11-11T13:08:23.990Z,40.00
2023-11-11T13:10:57.039Z,38.00
2023-11-11T13:13:25.883Z,38.00
2023-11-11T13:15:53.928Z,37.00
2023-11-11T13:18:22.482Z,39.50
2023-11-11T13:20:51.465Z,36.00
2023-11-11T13:23:20.400Z,36.00
2023-11-11T13:25:49.228Z,36.75
2023-11-11T13:28:16.263Z,38.00
2023-11-11T13:30:43.225Z,37.75
2023-11-11T13:33:10.520Z,36.00
2023-11-11T13:35:37.883Z,38.50
2023-11-11T13:38:05.418Z,39.00
2023-11-11T13:40:32.491Z,36.50
2023-11-11T13:42:59.641Z,39.00
2023-11-11T13:45:28.209Z,39.00
2023-11-11T13:47:55.424Z,40.50
2023-11-11T13:50:22.796Z,38.00
2023-11-11T13:52:49.974Z,36.00
2023-11-11T13:55:17.183Z,36.25
2023-11-11T13:57:44.375Z,38.75
2023-11-11T14:00:12.738Z,39.00
2023-11-11T14:02:40.307Z,38.50
2023-11-11T14:05:07.665Z,39.00
2023-11-11T14:07:34.733Z,38.75
2023-11-11T14:10:01.739Z,39.00
2023-11-11T14:12:30.397Z,38.00
2023-11-11T14:14:57.785Z,37.00
2023-11-11T14:17:27.537Z,36.00
2023-11-11T14:19:56.312Z,39.50
2023-11-11T14:22:24.650Z,40.00
2023-11-11T14:24:51.928Z,44.00
2023-11-11T14:27:18.882Z,41.00
2023-11-11T14:29:48.193Z,38.00
2023-11-11T14:32:15.807Z,40.00
2023-11-11T14:34:43.256Z,38.00
2023-11-11T14:37:10.285Z,37.00
2023-11-11T14:39:37.201Z,37.75
2023-11-11T14:42:04.230Z,38.00
2023-11-11T14:44:31.184Z,36.00
2023-11-11T14:46:58.381Z,36.00
2023-11-11T14:49:25.604Z,36.00
2023-11-11T14:51:53.151Z,36.00
2023-11-11T14:54:20.465Z,34.00
2023-11-11T14:56:47.631Z,34.00
2023-11-11T14:59:15.372Z,36.00
2023-11-11T15:01:42.660Z,34.00
2023-11-11T15:04:10.940Z,35.25
2023-11-11T15:06:38.817Z,36.00
2023-11-11T15:09:06.003Z,36.00
2023-11-11T15:11:33.847Z,37.50
2023-11-11T15:14:01.523Z,36.00
2023-11-11T15:16:30.776Z,33.00
2023-11-11T15:18:58.679Z,35.50
2023-11-11T15:21:25.656Z,34.00
2023-11-11T15:23:52.532Z,33.00
2023-11-11T15:26:22.456Z,32.50
2023-11-11T15:28:49.903Z,32.00
2023-11-11T15:31:25.710Z,34.75
2023-11-11T15:33:52.884Z,34.00
2023-11-11T15:36:23.506Z,33.00
2023-11-11T15:38:50.676Z,34.00
2023-11-11T15:41:17.728Z,34.50
2023-11-11T15:43:45.293Z,35.00
2023-11-11T15:46:12.955Z,38.00
2023-11-11T15:48:40.163Z,36.00
2023-11-11T15:51:17.875Z,35.50
2023-11-11T15:53:49.765Z,36.00
2023-11-11T15:56:16.891Z,35.00
2023-11-11T15:58:44.943Z,36.00
2023-11-11T16:01:12.820Z,37.75
2023-11-11T16:03:40.263Z,36.50
2023-11-11T16:06:10.234Z,35.00
2023-11-11T16:08:38.297Z,34.00
2023-11-11T16:11:05.195Z,32.50
2023-11-11T16:13:33.461Z,32.00
2023-11-11T16:16:00.757Z,33.00
2023-11-11T16:18:27.784Z,34.00
2023-11-11T16:20:56.018Z,35.00
2023-11-11T16:23:23.590Z,32.00
2023-11-11T16:25:50.665Z,30.50
2023-11-11T16:28:17.673Z,34.00
2023-11-11T16:30:45.757Z,35.00
2023-11-11T16:33:13.157Z,34.00
2023-11-11T16:35:41.358Z,35.00
2023-11-11T16:38:08.531Z,36.00
2023-11-11T16:40:35.572Z,37.00
2023-11-11T16:43:02.580Z,35.00
2023-11-11T16:45:29.454Z,33.00
2023-11-11T16:47:56.344Z,33.50
2023-11-11T16:50:23.727Z,36.00
2023-11-11T16:52:52.196Z,35.00
2023-11-11T16:55:19.288Z,37.50
2023-11-11T16:57:46.172Z,38.00
2023-11-11T17:00:13.690Z,36.50
2023-11-11T17:02:40.674Z,36.00
2023-11-11T17:05:07.774Z,37.50
2023-11-11T17:07:37.262Z,36.25
2023-11-11T17:10:05.611Z,36.00
2023-11-11T17:12:32.744Z,36.00
2023-11-11T17:14:59.645Z,37.00
2023-11-11T17:17:26.431Z,34.00
2023-11-11T17:19:53.263Z,32.50
2023-11-11T17:22:22.377Z,34.00
2023-11-11T17:24:49.913Z,35.75
2023-11-11T17:27:16.848Z,35.00
2023-11-11T17:29:49.234Z,33.00
2023-11-11T17:32:16.437Z,33.00
2023-11-11T17:34:43.431Z,32.25
2023-11-11T17:37:10.483Z,33.00
2023-11-11T17:39:37.491Z,34.50
2023-11-11T17:42:04.651Z,32.00
2023-11-11T17:44:31.518Z,34.00
2023-11-11T17:46:58.540Z,32.75
2023-11-11T17:49:25.450Z,32.00
2023-11-11T17:51:52.927Z,31.00
2023-11-11T17:54:20.072Z,30.75
2023-11-11T17:56:47.000Z,35.00
2023-11-11T17:59:15.123Z,32.00
2023-11-11T18:01:42.200Z,32.75
2023-11-11T18:04:09.208Z,34.50
2023-11-11T18:06:43.898Z,33.00
2023-11-11T18:09:12.050Z,33.00
2023-11-11T18:11:39.826Z,34.25
2023-11-11T18:14:07.186Z,35.00
2023-11-11T18:16:34.227Z,36.00
2023-11-11T18:19:01.343Z,33.75
2023-11-11T18:21:28.978Z,33.50
2023-11-11T18:23:57.073Z,33.00
2023-11-11T18:26:24.899Z,35.00
2023-11-11T18:28:52.057Z,35.00
2023-11-11T18:31:19.647Z,34.00
2023-11-11T18:33:47.588Z,36.25
2023-11-11T18:36:14.938Z,35.50
2023-11-11T18:38:41.972Z,35.50
2023-11-11T18:41:08.911Z,36.00
2023-11-11T18:43:37.378Z,34.00
2023-11-11T18:46:05.884Z,32.00
2023-11-11T18:48:33.132Z,35.00
2023-11-11T18:51:00.407Z,33.00
2023-11-11T18:53:28.840Z,31.00
2023-11-11T18:55:58.134Z,33.50
2023-11-11T18:58:25.385Z,32.00
2023-11-11T19:00:52.674Z,32.00
2023-11-11T19:03:20.072Z,32.75
2023-11-11T19:05:47.237Z,30.00
2023-11-11T19:08:14.251Z,30.00
2023-11-11T19:10:41.584Z,33.00
2023-11-11T19:13:08.681Z,31.75
2023-11-11T19:15:37.274Z,31.75
2023-11-11T19:18:04.321Z,33.75
2023-11-11T19:20:31.307Z,31.00
2023-11-11T19:22:58.316Z,34.50
2023-11-11T19:25:25.589Z,36.50
2023-11-11T19:27:52.675Z,32.00
2023-11-11T19:30:19.652Z,34.50
2023-11-11T19:32:46.642Z,36.00
2023-11-11T19:35:14.357Z,35.00
2023-11-11T19:37:41.357Z,32.00
2023-11-11T19:40:09.092Z,32.00
2023-11-11T19:42:36.086Z,32.00
2023-11-11T19:45:05.023Z,32.00
2023-11-11T19:47:32.010Z,32.00
2023-11-11T19:49:59.148Z,32.75
2023-11-11T19:52:27.623Z,33.75
2023-11-11T19:54:54.799Z,34.00
2023-11-11T19:57:21.725Z,34.00
2023-11-11T19:59:48.624Z,36.50
2023-11-11T20:02:15.604Z,36.00
2023-11-11T20:04:42.688Z,34.00
2023-11-11T20:07:09.717Z,35.25
2023-11-11T20:09:36.898Z,35.00
2023-11-11T20:12:04.612Z,35.00
2023-11-11T20:14:32.277Z,35.00
2023-11-11T20:16:59.267Z,34.00
2023-11-11T20:19:26.576Z,33.00
2023-11-11T20:21:53.700Z,33.00
2023-11-11T20:24:20.674Z,35.00
2023-11-11T20:26:47.665Z,35.00
2023-11-11T20:29:14.721Z,32.50
2023-11-11T20:31:41.680Z,34.50
2023-11-11T20:34:08.696Z,34.50
2023-11-11T20:36:35.596Z,33.00
2023-11-11T20:39:03.409Z,34.50
2023-11-11T20:41:30.489Z,36.00
2023-11-11T20:43:57.488Z,32.50
2023-11-11T20:46:27.081Z,33.00
2023-11-11T20:48:55.858Z,30.50
2023-11-11T20:51:22.764Z,30.50
2023-11-11T20:53:49.915Z,31.00
2023-11-11T20:56:16.861Z,30.50
2023-11-11T20:58:52.444Z,30.00
2023-11-11T21:01:19.555Z,32.00
2023-11-11T21:03:46.545Z,32.50
2023-11-11T21:06:13.543Z,32.00
2023-11-11T21:08:40.676Z,32.25
2023-11-11T21:11:07.755Z,33.00
2023-11-11T21:13:34.807Z,32.50
2023-11-11T21:16:01.876Z,31.00
2023-11-11T21:18:29.263Z,31.00
2023-11-11T21:20:56.357Z,32.75
2023-11-11T21:23:23.238Z,33.00
2023-11-11T21:25:50.189Z,32.00
2023-11-11T21:28:17.119Z,33.00
2023-11-11T21:30:44.174Z,33.00
2023-11-11T21:33:11.097Z,33.00
2023-11-11T21:35:38.070Z,30.00
2023-11-11T21:38:05.002Z,32.00
2023-11-11T21:40:32.393Z,31.00
2023-11-11T21:42:59.352Z,31.00
2023-11-11T21:45:26.331Z,33.00
2023-11-11T21:47:53.275Z,33.00
2023-11-11T21:50:20.586Z,32.00
2023-11-11T21:52:47.612Z,30.00
2023-11-11T21:55:14.608Z,30.00
2023-11-11T21:57:41.501Z,30.00
2023-11-11T22:00:11.928Z,32.00
2023-11-11T22:02:39.542Z,33.00
2023-11-11T22:05:07.293Z,33.00
2023-11-11T22:07:34.180Z,30.25
2023-11-11T22:10:01.094Z,31.00
2023-11-11T22:12:28.133Z,30.00
2023-11-11T22:14:55.107Z,30.50
2023-11-11T22:17:22.066Z,31.00
2023-11-11T22:19:49.088Z,30.00
2023-11-11T22:22:16.139Z,33.75
2023-11-11T22:24:43.043Z,34.00
2023-11-11T22:27:10.045Z,34.00
2023-11-11T22:29:36.940Z,30.00
2023-11-11T22:32:04.017Z,30.00
2023-11-11T22:34:30.913Z,30.00
2023-11-11T22:36:57.794Z,30.50
2023-11-11T22:39:24.936Z,33.00
2023-11-11T22:41:51.911Z,34.00
2023-11-11T22:44:18.876Z,34.00
2023-11-11T22:46:45.842Z,32.00
2023-11-11T22:49:12.881Z,33.00
2023-11-11T22:51:39.795Z,32.00
2023-11-11T22:54:06.974Z,32.50
2023-11-11T22:56:33.977Z,34.00
2023-11-11T22:59:00.942Z,33.00
2023-11-11T23:01:27.838Z,32.00
2023-11-11T23:03:54.868Z,33.00
2023-11-11T23:06:21.733Z,32.00
2023-11-11T23:08:48.667Z,31.00
2023-11-11T23:11:15.654Z,30.00
2023-11-11T23:13:42.618Z,29.00
2023-11-11T23:16:09.661Z,31.00
2023-11-11T23:18:36.931Z,31.25
2023-11-11T23:21:10.960Z,32.00
2023-11-11T23:23:44.224Z,32.00
2023-11-11T23:26:11.671Z,34.50
2023-11-11T23:28:38.824Z,33.00
2023-11-11T23:31:08.239Z,30.00
2023-11-11T23:33:36.106Z,30.75
2023-11-11T23:36:03.121Z,30.25
2023-11-11T23:38:30.158Z,30.50
2023-11-11T23:40:57.089Z,31.75
2023-11-11T23:43:24.186Z,30.50
2023-11-11T23:45:51.071Z,32.00
2023-11-11T23:48:18.146Z,30.00
2023-11-11T23:50:45.048Z,30.50
2023-11-11T23:53:12.537Z,30.00
2023-11-11T23:55:39.811Z,28.00
2023-11-11T23:58:07.189Z,30.50
